createdAt,value
2023-07-24T00:00:55.449Z,99416.06
2023-07-24T00:01:52.620Z,99421.63
2023-07-24T00:02:49.750Z,99410.31
2023-07-24T00:03:47.211Z,99419.97
2023-07-24T00:04:44.295Z,99416.16
2023-07-24T00:05:41.420Z,99418.62
2023-07-24T00:06:38.741Z,99417.81
2023-07-24T00:07:35.957Z,99418.06
2023-07-24T00:08:33.079Z,99417.22
2023-07-24T00:09:30.767Z,99408.94
2023-07-24T00:10:27.960Z,99411.72
2023-07-24T00:11:25.173Z,99412.56
2023-07-24T00:12:22.959Z,99411.19
2023-07-24T00:13:20.144Z,99413.94
2023-07-24T00:14:17.760Z,99407.06
2023-07-24T00:15:14.787Z,99406.53
2023-07-24T00:16:12.158Z,99411.22
2023-07-24T00:17:09.323Z,99410.91
2023-07-24T00:18:06.452Z,99408.97
2023-07-24T00:19:03.670Z,99415.59
2023-07-24T00:20:00.706Z,99410.66
2023-07-24T00:21:54.673Z,99410.91
2023-07-24T00:22:52.469Z,99410.91
2023-07-24T00:23:49.631Z,99412.28
2023-07-24T00:24:46.748Z,99406.81
2023-07-24T00:25:43.820Z,99411.22
2023-07-24T00:26:41.112Z,99410.69
2023-07-24T00:27:38.148Z,99411.22
2023-07-24T00:28:35.236Z,99410.97
2023-07-24T00:29:32.362Z,99409.88
2023-07-24T00:30:29.318Z,99410.97
2023-07-24T00:31:26.582Z,99414.56
2023-07-24T00:32:23.765Z,99406.31
2023-07-24T00:33:20.817Z,99401.59
2023-07-24T00:34:17.777Z,99404.91
2023-07-24T00:35:14.780Z,99411.53
2023-07-24T00:36:11.810Z,99415.09
2023-07-24T00:37:09.073Z,99408.47
2023-07-24T00:38:06.261Z,99412.34
2023-07-24T00:39:03.406Z,99410.97
2023-07-24T00:40:00.553Z,99402.16
2023-07-24T00:40:57.838Z,99409.31
2023-07-24T00:41:54.831Z,99407.66
2023-07-24T00:42:51.928Z,99401.31
2023-07-24T00:43:49.070Z,99406.84
2023-07-24T00:44:46.296Z,99407.94
2023-07-24T00:45:43.847Z,99404.91
2023-07-24T00:46:41.285Z,99404.94
2023-07-24T00:47:38.478Z,99409.88
2023-07-24T00:48:35.562Z,99407.09
2023-07-24T00:49:32.725Z,99407.41
2023-07-24T00:50:30.548Z,99408.22
2023-07-24T00:51:31.199Z,99404.66
2023-07-24T00:52:28.044Z,99407.94
2023-07-24T00:53:25.108Z,99402.97
2023-07-24T00:54:24.026Z,99402.97
2023-07-24T00:55:21.160Z,99399.69
2023-07-24T00:56:18.162Z,99402.44
2023-07-24T00:57:15.401Z,99402.16
2023-07-24T00:58:13.337Z,99395.28
2023-07-24T00:59:10.424Z,99396.94
2023-07-24T01:00:08.703Z,99397.78
2023-07-24T01:01:06.538Z,99398.31
2023-07-24T01:02:03.644Z,99398.84
2023-07-24T01:03:01.352Z,99396.09
2023-07-24T01:03:58.628Z,99405.47
2023-07-24T01:04:55.694Z,99399.97
2023-07-24T01:05:52.776Z,99401.06
2023-07-24T01:06:49.885Z,99399.97
2023-07-24T01:07:46.963Z,99400.53
2023-07-24T01:08:44.100Z,99396.94
2023-07-24T01:09:41.208Z,99398.59
2023-07-24T01:10:38.315Z,99398.31
2023-07-24T01:11:41.323Z,99399.41
2023-07-24T01:12:49.161Z,99394.19
2023-07-24T01:14:13.446Z,99393.63
2023-07-24T01:15:17.966Z,99399.13
2023-07-24T01:16:18.253Z,99391.44
2023-07-24T01:17:23.688Z,99396.38
2023-07-24T01:18:24.246Z,99396.09
2023-07-24T01:19:30.143Z,99398.56
2023-07-24T01:20:28.377Z,99394.44
2023-07-24T01:21:46.736Z,99389.78
2023-07-24T01:23:07.038Z,99384.81
2023-07-24T01:24:24.368Z,99386.72
2023-07-24T01:25:38.223Z,99388.69
2023-07-24T01:26:35.513Z,99391.13
2023-07-24T01:27:32.648Z,99391.44
2023-07-24T01:28:29.835Z,99384.56
2023-07-24T01:29:26.915Z,99391.72
2023-07-24T01:30:24.101Z,99390.59
2023-07-24T01:31:21.193Z,99396.66
2023-07-24T01:32:18.886Z,99390.59
2023-07-24T01:33:16.106Z,99382.91
2023-07-24T01:34:13.232Z,99387.84
2023-07-24T01:35:10.397Z,99381.25
2023-07-24T01:36:08.344Z,99383.72
2023-07-24T01:37:05.587Z,99382.63
2023-07-24T01:38:04.700Z,99376.28
2023-07-24T01:39:02.194Z,99379.03
2023-07-24T01:39:59.853Z,99382.63
2023-07-24T01:40:57.731Z,99388.97
2023-07-24T01:41:55.588Z,99390.34
2023-07-24T01:42:53.394Z,99386.47
2023-07-24T01:43:50.475Z,99384.00
2023-07-24T01:44:55.911Z,99384.53
2023-07-24T01:45:52.963Z,99386.19
2023-07-24T01:46:50.082Z,99388.41
2023-07-24T01:47:47.268Z,99389.50
2023-07-24T01:48:44.409Z,99385.66
2023-07-24T01:49:41.576Z,99381.78
2023-07-24T01:50:38.587Z,99380.72
2023-07-24T01:51:35.690Z,99385.38
2023-07-24T01:52:32.815Z,99380.97
2023-07-24T01:53:29.961Z,99378.22
2023-07-24T01:54:26.922Z,99379.06
2023-07-24T01:55:23.995Z,99382.63
2023-07-24T01:56:21.182Z,99384.28
2023-07-24T01:57:18.265Z,99373.53
2023-07-24T01:58:15.365Z,99376.84
2023-07-24T01:59:12.465Z,99380.16
2023-07-24T02:00:10.246Z,99376.59
2023-07-24T02:01:07.268Z,99376.31
2023-07-24T02:02:04.573Z,99374.91
2023-07-24T02:03:01.891Z,99377.09
2023-07-24T02:03:59.045Z,99369.09
2023-07-24T02:04:56.110Z,99370.22
2023-07-24T02:05:53.302Z,99369.37
2023-07-24T02:06:51.177Z,99366.66
2023-07-24T02:07:48.278Z,99370.75
2023-07-24T02:08:50.162Z,99368.31
2023-07-24T02:09:47.258Z,99360.31
2023-07-24T02:10:44.276Z,99361.13
2023-07-24T02:11:41.407Z,99361.94
2023-07-24T02:12:38.458Z,99361.97
2023-07-24T02:13:35.493Z,99365.00
2023-07-24T02:14:32.555Z,99364.16
2023-07-24T02:15:29.546Z,99361.69
2023-07-24T02:16:26.642Z,99360.03
2023-07-24T02:17:24.920Z,99357.53
2023-07-24T02:18:21.916Z,99352.34
2023-07-24T02:19:18.915Z,99356.16
2023-07-24T02:20:16.025Z,99352.06
2023-07-24T02:21:13.045Z,99355.91
2023-07-24T02:22:10.202Z,99361.69
2023-07-24T02:23:09.236Z,99354.53
2023-07-24T02:24:06.401Z,99351.50
2023-07-24T02:25:03.465Z,99348.47
2023-07-24T02:26:00.575Z,99354.53
2023-07-24T02:26:57.578Z,99350.66
2023-07-24T02:27:54.658Z,99349.28
2023-07-24T02:28:51.766Z,99348.19
2023-07-24T02:29:48.823Z,99342.41
2023-07-24T02:30:48.125Z,99353.41
2023-07-24T02:31:45.229Z,99355.06
2023-07-24T02:32:42.388Z,99344.87
2023-07-24T02:33:39.303Z,99342.97
2023-07-24T02:34:36.224Z,99342.12
2023-07-24T02:35:33.231Z,99341.06
2023-07-24T02:36:30.566Z,99347.91
2023-07-24T02:37:27.803Z,99347.38
2023-07-24T02:38:24.735Z,99339.41
2023-07-24T02:39:22.094Z,99351.22
2023-07-24T02:40:19.172Z,99349.28
2023-07-24T02:41:16.165Z,99352.84
2023-07-24T02:42:13.218Z,99349.84
2023-07-24T02:43:10.267Z,99347.91
2023-07-24T02:44:07.264Z,99353.69
2023-07-24T02:45:05.107Z,99350.38
2023-07-24T02:46:03.605Z,99350.94
2023-07-24T02:47:00.641Z,99351.47
2023-07-24T02:47:57.752Z,99350.38
2023-07-24T02:48:55.604Z,99346.28
2023-07-24T02:49:52.637Z,99347.09
2023-07-24T02:50:50.305Z,99355.88
2023-07-24T02:51:47.305Z,99354.78
2023-07-24T02:52:44.249Z,99350.12
2023-07-24T02:53:41.205Z,99350.41
2023-07-24T02:54:38.254Z,99351.47
2023-07-24T02:55:35.314Z,99347.09
2023-07-24T02:56:32.518Z,99355.06
2023-07-24T02:57:29.680Z,99349.56
2023-07-24T02:58:26.663Z,99349.84
2023-07-24T02:59:23.612Z,99353.69
2023-07-24T03:00:20.747Z,99344.09
2023-07-24T03:01:17.983Z,99342.12
2023-07-24T03:02:15.162Z,99344.31
2023-07-24T03:03:12.404Z,99340.19
2023-07-24T03:04:09.628Z,99348.75
2023-07-24T03:05:06.893Z,99344.31
2023-07-24T03:06:04.050Z,99343.78
2023-07-24T03:07:01.185Z,99343.22
2023-07-24T03:07:58.201Z,99343.25
2023-07-24T03:08:55.293Z,99336.63
2023-07-24T03:09:52.428Z,99336.34
2023-07-24T03:10:49.475Z,99335.81
2023-07-24T03:11:46.491Z,99339.66
2023-07-24T03:12:43.499Z,99335.25
2023-07-24T03:13:42.343Z,99345.69
2023-07-24T03:14:39.300Z,99343.47
2023-07-24T03:15:36.187Z,99339.94
2023-07-24T03:16:33.334Z,99341.28
2023-07-24T03:17:30.372Z,99337.97
2023-07-24T03:18:27.546Z,99341.28
2023-07-24T03:19:24.584Z,99335.22
2023-07-24T03:20:22.362Z,99337.19
2023-07-24T03:21:20.740Z,99340.50
2023-07-24T03:22:17.816Z,99339.66
2023-07-24T03:23:14.963Z,99336.88
2023-07-24T03:24:12.022Z,99337.44
2023-07-24T03:25:09.575Z,99337.97
2023-07-24T03:26:06.552Z,99335.00
2023-07-24T03:27:03.713Z,99330.56
2023-07-24T03:28:00.626Z,99334.69
2023-07-24T03:28:57.589Z,99335.25
2023-07-24T03:29:54.589Z,99330.87
2023-07-24T03:30:51.648Z,99334.16
2023-07-24T03:31:48.787Z,99328.38
2023-07-24T03:32:45.896Z,99328.09
2023-07-24T03:33:42.914Z,99331.69
2023-07-24T03:34:40.506Z,99333.62
2023-07-24T03:35:37.607Z,99333.62
2023-07-24T03:36:35.273Z,99338.84
2023-07-24T03:37:32.911Z,99336.94
2023-07-24T03:38:29.975Z,99336.09
2023-07-24T03:39:26.911Z,99335.84
2023-07-24T03:40:23.960Z,99338.03
2023-07-24T03:41:21.702Z,99340.22
2023-07-24T03:42:38.876Z,99347.91
2023-07-24T03:43:35.945Z,99346.31
2023-07-24T03:44:32.987Z,99342.44
2023-07-24T03:45:30.098Z,99346.59
2023-07-24T03:46:27.358Z,99342.19
2023-07-24T03:47:25.561Z,99343.00
2023-07-24T03:48:22.632Z,99338.06
2023-07-24T03:49:19.594Z,99340.78
2023-07-24T03:50:16.642Z,99342.72
2023-07-24T03:51:13.684Z,99338.63
2023-07-24T03:52:10.738Z,99343.56
2023-07-24T03:53:07.916Z,99344.66
2023-07-24T03:54:05.013Z,99330.06
2023-07-24T03:55:03.299Z,99337.22
2023-07-24T03:56:00.458Z,99337.50
2023-07-24T03:56:57.382Z,99333.91
2023-07-24T03:57:54.404Z,99336.66
2023-07-24T03:58:51.415Z,99339.97
2023-07-24T03:59:48.377Z,99334.72
2023-07-24T04:00:45.503Z,99334.19
2023-07-24T04:01:42.491Z,99345.72
2023-07-24T04:02:41.021Z,99335.81
2023-07-24T04:03:38.109Z,99346.81
2023-07-24T04:04:35.254Z,99340.72
2023-07-24T04:05:32.301Z,99341.56
2023-07-24T04:06:29.765Z,99340.19
2023-07-24T04:07:28.536Z,99332.19
2023-07-24T04:08:25.602Z,99330.78
2023-07-24T04:09:22.551Z,99333.25
2023-07-24T04:10:19.513Z,99329.97
2023-07-24T04:11:16.478Z,99331.59
2023-07-24T04:12:14.012Z,99331.88
2023-07-24T04:13:11.007Z,99336.53
2023-07-24T04:14:08.156Z,99336.50
2023-07-24T04:15:05.666Z,99338.31
2023-07-24T04:16:02.725Z,99339.31
2023-07-24T04:16:59.862Z,99337.66
2023-07-24T04:17:56.939Z,99328.22
2023-07-24T04:18:53.973Z,99325.41
2023-07-24T04:19:51.070Z,99326.50
2023-07-24T04:20:48.174Z,99329.53
2023-07-24T04:21:45.194Z,99336.72
2023-07-24T04:22:42.624Z,99333.97
2023-07-24T04:23:39.747Z,99335.88
2023-07-24T04:24:37.040Z,99332.59
2023-07-24T04:25:34.229Z,99337.81
2023-07-24T04:26:31.500Z,99335.50
2023-07-24T04:27:28.897Z,99327.69
2023-07-24T04:28:25.983Z,99330.91
2023-07-24T04:29:25.164Z,99326.38
2023-07-24T04:30:22.234Z,99328.13
2023-07-24T04:31:19.210Z,99332.13
2023-07-24T04:32:16.302Z,99324.63
2023-07-24T04:33:13.357Z,99329.25
2023-07-24T04:34:10.378Z,99318.44
2023-07-24T04:35:08.310Z,99323.97
2023-07-24T04:36:05.686Z,99327.66
2023-07-24T04:37:02.701Z,99328.84
2023-07-24T04:37:59.863Z,99325.41
2023-07-24T04:38:56.796Z,99334.12
2023-07-24T04:39:53.804Z,99333.69
2023-07-24T04:40:50.846Z,99329.94
2023-07-24T04:41:47.951Z,99332.19
2023-07-24T04:42:44.987Z,99333.38
2023-07-24T04:43:41.903Z,99334.31
2023-07-24T04:44:38.934Z,99329.25
2023-07-24T04:45:36.045Z,99330.09
2023-07-24T04:46:33.459Z,99323.72
2023-07-24T04:47:30.680Z,99332.69
2023-07-24T04:48:27.731Z,99331.78
2023-07-24T04:49:25.788Z,99329.34
2023-07-24T04:50:22.764Z,99333.59
2023-07-24T04:51:20.067Z,99322.09
2023-07-24T04:52:17.174Z,99322.84
2023-07-24T04:53:14.150Z,99321.19
2023-07-24T04:54:11.139Z,99325.50
2023-07-24T04:55:08.608Z,99319.00
2023-07-24T04:56:05.851Z,99322.28
2023-07-24T04:57:02.980Z,99315.87
2023-07-24T04:58:00.063Z,99321.69
2023-07-24T04:58:57.042Z,99328.03
2023-07-24T04:59:54.104Z,99325.59
2023-07-24T05:00:51.051Z,99323.00
2023-07-24T05:01:48.145Z,99320.69
2023-07-24T05:02:45.167Z,99324.78
2023-07-24T05:03:42.260Z,99318.44
2023-07-24T05:04:39.400Z,99327.34
2023-07-24T05:05:36.419Z,99326.28
2023-07-24T05:06:33.553Z,99321.84
2023-07-24T05:07:30.593Z,99321.03
2023-07-24T05:08:27.610Z,99325.00
2023-07-24T05:09:24.583Z,99324.63
2023-07-24T05:10:21.693Z,99327.31
2023-07-24T05:11:18.734Z,99330.22
2023-07-24T05:12:15.773Z,99331.13
2023-07-24T05:13:13.892Z,99336.75
2023-07-24T05:14:11.062Z,99331.88
2023-07-24T05:15:08.854Z,99336.00
2023-07-24T05:16:06.007Z,99334.25
2023-07-24T05:17:03.161Z,99335.88
2023-07-24T05:18:00.328Z,99335.34
2023-07-24T05:18:57.440Z,99343.16
2023-07-24T05:19:54.503Z,99344.06
2023-07-24T05:20:54.479Z,99335.66
2023-07-24T05:21:51.472Z,99334.84
2023-07-24T05:22:48.592Z,99332.59
2023-07-24T05:23:45.645Z,99327.16
2023-07-24T05:24:42.765Z,99329.69
2023-07-24T05:25:39.805Z,99329.00
2023-07-24T05:26:37.006Z,99333.78
2023-07-24T05:27:34.216Z,99330.09
2023-07-24T05:28:32.555Z,99339.34
2023-07-24T05:29:29.590Z,99332.09
2023-07-24T05:30:26.629Z,99332.19
2023-07-24T05:31:23.690Z,99330.25
2023-07-24T05:32:20.753Z,99333.81
2023-07-24T05:33:17.754Z,99340.13
2023-07-24T05:34:14.756Z,99332.41
2023-07-24T05:35:11.744Z,99330.91
2023-07-24T05:36:08.758Z,99329.75
2023-07-24T05:37:06.849Z,99324.34
2023-07-24T05:38:03.997Z,99333.31
2023-07-24T05:39:01.106Z,99333.47
2023-07-24T05:39:58.172Z,99330.09
2023-07-24T05:40:58.354Z,99329.91
2023-07-24T05:41:55.460Z,99332.97
2023-07-24T05:42:52.462Z,99331.00
2023-07-24T05:43:49.511Z,99328.94
2023-07-24T05:44:46.510Z,99335.12
2023-07-24T05:45:43.565Z,99331.06
2023-07-24T05:46:40.592Z,99332.16
2023-07-24T05:47:37.833Z,99334.56
2023-07-24T05:48:34.998Z,99331.56
2023-07-24T05:49:32.135Z,99332.91
2023-07-24T05:50:29.182Z,99333.00
2023-07-24T05:51:26.120Z,99336.94
2023-07-24T05:52:23.131Z,99338.41
2023-07-24T05:53:22.773Z,99337.94
2023-07-24T05:54:19.709Z,99343.66
2023-07-24T05:55:16.863Z,99341.53
2023-07-24T05:56:13.880Z,99337.94
2023-07-24T05:57:10.856Z,99335.97
2023-07-24T05:58:07.833Z,99338.72
2023-07-24T05:59:04.842Z,99346.63
2023-07-24T06:00:01.853Z,99348.69
2023-07-24T06:00:58.900Z,99342.72
2023-07-24T06:01:55.952Z,99339.28
2023-07-24T06:02:54.471Z,99340.41
2023-07-24T06:03:53.652Z,99337.09
2023-07-24T06:04:50.630Z,99341.03
2023-07-24T06:05:47.992Z,99346.97
2023-07-24T06:06:45.052Z,99347.03
2023-07-24T06:07:42.085Z,99340.94
2023-07-24T06:08:39.129Z,99346.41
2023-07-24T06:09:36.289Z,99346.31
2023-07-24T06:10:33.253Z,99333.84
2023-07-24T06:11:30.439Z,99342.97
2023-07-24T06:12:27.410Z,99339.09
2023-07-24T06:13:24.423Z,99342.25
2023-07-24T06:14:21.380Z,99336.84
2023-07-24T06:15:18.402Z,99330.41
2023-07-24T06:16:15.544Z,99329.91
2023-07-24T06:17:12.563Z,99324.78
2023-07-24T06:18:10.127Z,99319.38
2023-07-24T06:19:07.334Z,99319.44
2023-07-24T06:20:04.682Z,99321.63
2023-07-24T06:21:01.644Z,99310.03
2023-07-24T06:21:58.678Z,99322.25
2023-07-24T06:22:55.727Z,99319.28
2023-07-24T06:23:53.126Z,99326.06
2023-07-24T06:24:50.594Z,99319.00
2023-07-24T06:25:47.630Z,99316.41
2023-07-24T06:26:44.582Z,99320.63
2023-07-24T06:27:41.523Z,99313.28
2023-07-24T06:28:38.572Z,99306.97
2023-07-24T06:29:35.777Z,99310.56
2023-07-24T06:30:33.382Z,99313.25
2023-07-24T06:31:30.460Z,99302.91
2023-07-24T06:32:27.532Z,99309.31
2023-07-24T06:33:24.573Z,99303.16
2023-07-24T06:34:21.509Z,99302.53
2023-07-24T06:35:18.738Z,99312.88
2023-07-24T06:36:15.956Z,99312.12
2023-07-24T06:37:22.152Z,99317.31
2023-07-24T06:38:22.692Z,99314.47
2023-07-24T06:39:20.326Z,99312.12
2023-07-24T06:40:17.432Z,99311.38
2023-07-24T06:41:16.882Z,99313.91
2023-07-24T06:42:13.973Z,99306.69
2023-07-24T06:43:10.928Z,99310.19
2023-07-24T06:44:07.906Z,99308.44
2023-07-24T06:45:08.360Z,99316.31
2023-07-24T06:46:06.060Z,99305.22
2023-07-24T06:47:03.243Z,99314.34
2023-07-24T06:48:00.272Z,99311.28
2023-07-24T06:48:57.222Z,99315.44
2023-07-24T06:49:54.184Z,99300.81
2023-07-24T06:50:51.266Z,99305.25
2023-07-24T06:51:48.414Z,99303.66
2023-07-24T06:52:45.403Z,99308.84
2023-07-24T06:53:42.455Z,99299.69
2023-07-24T06:54:39.613Z,99299.87
2023-07-24T06:55:36.569Z,99299.53
2023-07-24T06:56:33.662Z,99309.53
2023-07-24T06:57:30.801Z,99304.25
2023-07-24T06:58:27.852Z,99296.09
2023-07-24T06:59:25.150Z,99298.22
2023-07-24T07:00:22.324Z,99296.22
2023-07-24T07:01:19.450Z,99286.66
2023-07-24T07:02:16.600Z,99293.00
2023-07-24T07:03:13.678Z,99285.81
2023-07-24T07:04:10.858Z,99275.19
2023-07-24T07:05:08.243Z,99286.31
2023-07-24T07:06:05.335Z,99282.94
2023-07-24T07:07:02.328Z,99290.34
2023-07-24T07:07:59.367Z,99281.09
2023-07-24T07:08:56.279Z,99287.16
2023-07-24T07:09:53.287Z,99287.34
2023-07-24T07:10:59.037Z,99291.34
2023-07-24T07:11:56.097Z,99297.28
2023-07-24T07:12:53.088Z,99302.72
2023-07-24T07:13:50.495Z,99304.81
2023-07-24T07:14:47.689Z,99301.25
2023-07-24T07:15:44.757Z,99300.03
2023-07-24T07:16:42.246Z,99300.56
2023-07-24T07:17:39.421Z,99289.12
2023-07-24T07:18:36.591Z,99303.69
2023-07-24T07:19:33.728Z,99299.53
2023-07-24T07:20:30.911Z,99297.41
2023-07-24T07:21:28.082Z,99301.31
2023-07-24T07:22:25.077Z,99302.47
2023-07-24T07:23:23.043Z,99300.19
2023-07-24T07:24:20.292Z,99305.59
2023-07-24T07:25:17.354Z,99302.81
2023-07-24T07:26:14.453Z,99299.69
2023-07-24T07:27:11.494Z,99300.03
2023-07-24T07:28:08.590Z,99294.94
2023-07-24T07:29:05.769Z,99287.44
2023-07-24T07:30:02.819Z,99296.78
2023-07-24T07:30:59.906Z,99298.72
2023-07-24T07:31:56.929Z,99303.16
2023-07-24T07:32:53.980Z,99303.47
2023-07-24T07:33:51.160Z,99304.44
2023-07-24T07:34:48.329Z,99297.06
2023-07-24T07:35:46.807Z,99305.59
2023-07-24T07:36:43.867Z,99301.00
2023-07-24T07:37:40.921Z,99304.06
2023-07-24T07:38:38.912Z,99304.41
2023-07-24T07:39:36.023Z,99301.16
2023-07-24T07:40:33.058Z,99294.75
2023-07-24T07:41:30.126Z,99299.16
2023-07-24T07:42:27.200Z,99306.84
2023-07-24T07:43:24.228Z,99299.63
2023-07-24T07:44:21.236Z,99295.47
2023-07-24T07:45:18.286Z,99305.09
2023-07-24T07:46:15.243Z,99299.22
2023-07-24T07:47:12.302Z,99290.34
2023-07-24T07:48:09.335Z,99285.63
2023-07-24T07:49:06.531Z,99292.16
2023-07-24T07:50:04.147Z,99283.66
2023-07-24T07:51:01.185Z,99285.59
2023-07-24T07:51:58.368Z,99281.22
2023-07-24T07:52:55.363Z,99280.88
2023-07-24T07:53:52.454Z,99280.19
2023-07-24T07:54:50.306Z,99274.47
2023-07-24T07:55:47.366Z,99288.53
2023-07-24T07:56:44.489Z,99283.16
2023-07-24T07:57:41.522Z,99285.78
2023-07-24T07:58:38.569Z,99283.00
2023-07-24T07:59:36.417Z,99273.03
2023-07-24T08:00:33.614Z,99274.78
2023-07-24T08:01:31.988Z,99274.81
2023-07-24T08:02:29.103Z,99270.72
2023-07-24T08:03:26.267Z,99275.47
2023-07-24T08:04:23.496Z,99264.13
2023-07-24T08:05:21.612Z,99265.94
2023-07-24T08:06:18.886Z,99263.84
2023-07-24T08:07:15.910Z,99265.31
2023-07-24T08:08:13.062Z,99268.38
2023-07-24T08:09:10.006Z,99263.34
2023-07-24T08:10:08.084Z,99262.00
2023-07-24T08:11:08.722Z,99259.91
2023-07-24T08:12:08.512Z,99265.16
2023-07-24T08:13:06.161Z,99256.28
2023-07-24T08:14:03.209Z,99249.69
2023-07-24T08:15:00.469Z,99246.94
2023-07-24T08:15:57.540Z,99247.41
2023-07-24T08:16:55.227Z,99240.88
2023-07-24T08:17:52.427Z,99237.75
2023-07-24T08:18:50.032Z,99241.47
2023-07-24T08:19:47.057Z,99249.62
2023-07-24T08:20:44.046Z,99247.72
2023-07-24T08:21:41.779Z,99235.44
2023-07-24T08:22:38.981Z,99236.38
2023-07-24T08:23:35.979Z,99230.44
2023-07-24T08:24:36.765Z,99232.25
2023-07-24T08:25:33.864Z,99230.66
2023-07-24T08:26:31.099Z,99233.91
2023-07-24T08:27:28.425Z,99240.31
2023-07-24T08:28:25.514Z,99239.81
2023-07-24T08:29:22.851Z,99239.44
2023-07-24T08:30:20.565Z,99241.69
2023-07-24T08:31:17.606Z,99239.34
2023-07-24T08:32:14.823Z,99244.34
2023-07-24T08:33:12.199Z,99243.69
2023-07-24T08:34:09.267Z,99243.38
2023-07-24T08:35:06.964Z,99251.00
2023-07-24T08:36:06.230Z,99246.75
2023-07-24T08:37:03.209Z,99247.22
2023-07-24T08:38:00.425Z,99243.28
2023-07-24T08:38:57.485Z,99247.28
2023-07-24T08:39:54.453Z,99245.06
2023-07-24T08:41:02.049Z,99246.31
2023-07-24T08:41:59.077Z,99238.81
2023-07-24T08:42:56.349Z,99240.69
2023-07-24T08:43:55.060Z,99237.31
2023-07-24T08:44:53.333Z,99238.56
2023-07-24T08:45:50.302Z,99234.00
2023-07-24T08:46:48.727Z,99240.00
2023-07-24T08:47:46.272Z,99237.66
2023-07-24T08:48:44.192Z,99226.75
2023-07-24T08:49:41.862Z,99225.16
2023-07-24T08:50:38.902Z,99225.69
2023-07-24T08:51:36.668Z,99222.84
2023-07-24T08:52:36.327Z,99223.72
2023-07-24T08:53:37.130Z,99228.56
2023-07-24T08:54:34.136Z,99228.09
2023-07-24T08:55:31.282Z,99226.38
2023-07-24T08:56:28.821Z,99219.97
2023-07-24T08:57:26.173Z,99224.75
2023-07-24T08:58:23.447Z,99225.41
2023-07-24T08:59:20.567Z,99219.91
2023-07-24T09:00:17.899Z,99213.38
2023-07-24T09:01:14.968Z,99214.69
2023-07-24T09:02:12.061Z,99216.03
2023-07-24T09:03:09.537Z,99218.38
2023-07-24T09:04:06.687Z,99211.69
2023-07-24T09:05:04.883Z,99213.75
2023-07-24T09:06:03.005Z,99208.41
2023-07-24T09:07:00.219Z,99207.94
2023-07-24T09:07:57.235Z,99208.97
2023-07-24T09:08:55.512Z,99218.28
2023-07-24T09:09:52.644Z,99209.37
2023-07-24T09:10:51.997Z,99209.03
2023-07-24T09:11:55.132Z,99213.66
2023-07-24T09:12:52.293Z,99216.28
2023-07-24T09:15:06.464Z,99218.69
2023-07-24T09:16:04.634Z,99211.19
2023-07-24T09:17:09.021Z,99220.66
2023-07-24T09:18:06.239Z,99213.25
2023-07-24T09:19:11.270Z,99219.25
2023-07-24T09:20:09.415Z,99212.16
2023-07-24T09:21:06.357Z,99218.63
2023-07-24T09:22:29.521Z,99208.66
2023-07-24T09:23:29.633Z,99211.84
2023-07-24T09:24:26.728Z,99210.47
2023-07-24T09:25:33.611Z,99205.22
2023-07-24T09:26:30.827Z,99206.03
2023-07-24T09:27:30.104Z,99206.34
2023-07-24T09:28:29.175Z,99199.88
2023-07-24T09:29:32.840Z,99194.84
2023-07-24T09:30:30.005Z,99203.53
2023-07-24T09:31:37.352Z,99202.44
2023-07-24T09:32:35.546Z,99194.66
2023-07-24T09:33:40.095Z,99185.53
2023-07-24T09:34:43.630Z,99187.66
2023-07-24T09:35:40.744Z,99180.09
2023-07-24T09:36:39.931Z,99186.16
2023-07-24T09:37:36.987Z,99181.47
2023-07-24T09:38:34.126Z,99182.50
2023-07-24T09:39:31.194Z,99173.72
2023-07-24T09:40:28.313Z,99167.00
2023-07-24T09:41:29.362Z,99167.25
2023-07-24T09:42:44.782Z,99166.50
2023-07-24T09:43:45.766Z,99159.78
2023-07-24T09:44:43.045Z,99164.06
2023-07-24T09:45:46.059Z,99166.69
2023-07-24T09:47:01.840Z,99159.69
2023-07-24T09:48:06.319Z,99165.50
2023-07-24T09:49:09.597Z,99165.97
2023-07-24T09:50:07.760Z,99153.13
2023-07-24T09:51:04.787Z,99161.22
2023-07-24T09:52:04.772Z,99153.78
2023-07-24T09:53:01.927Z,99161.97
2023-07-24T09:54:16.633Z,99155.50
2023-07-24T09:55:21.008Z,99157.84
2023-07-24T09:56:18.984Z,99150.84
2023-07-24T09:57:22.934Z,99151.53
2023-07-24T09:58:20.484Z,99151.81
2023-07-24T09:59:18.291Z,99139.16
2023-07-24T10:00:16.050Z,99142.41
2023-07-24T10:01:13.550Z,99136.59
2023-07-24T10:02:12.415Z,99129.38
2023-07-24T10:03:09.863Z,99120.19
2023-07-24T10:04:07.701Z,99127.28
2023-07-24T10:05:04.979Z,99124.13
2023-07-24T10:06:02.400Z,99127.75
2023-07-24T10:06:59.595Z,99126.09
2023-07-24T10:07:56.931Z,99124.69
2023-07-24T10:08:54.093Z,99122.53
2023-07-24T10:09:52.374Z,99120.34
2023-07-24T10:10:52.406Z,99115.56
2023-07-24T10:11:49.400Z,99111.00
2023-07-24T10:12:46.621Z,99112.03
2023-07-24T10:13:43.902Z,99111.25
2023-07-24T10:14:40.901Z,99104.25
2023-07-24T10:15:39.010Z,99114.97
2023-07-24T10:16:36.073Z,99107.66
2023-07-24T10:17:40.679Z,99109.16
2023-07-24T10:18:44.799Z,99113.19
2023-07-24T10:19:44.394Z,99107.53
2023-07-24T10:20:42.306Z,99104.63
2023-07-24T10:21:47.201Z,99106.84
2023-07-24T10:22:44.753Z,99087.16
2023-07-24T10:23:47.874Z,99091.09
2023-07-24T10:24:45.019Z,99087.81
2023-07-24T10:25:42.089Z,99088.06
2023-07-24T10:26:39.200Z,99094.81
2023-07-24T10:27:47.035Z,99092.25
2023-07-24T10:28:44.129Z,99102.53
2023-07-24T10:29:41.245Z,99097.75
2023-07-24T10:30:44.984Z,99103.06
2023-07-24T10:31:42.336Z,99092.84
2023-07-24T10:32:51.517Z,99095.41
2023-07-24T10:33:51.374Z,99090.53
2023-07-24T10:34:57.826Z,99091.34
2023-07-24T10:35:55.800Z,99090.84
2023-07-24T10:37:04.622Z,99087.13
2023-07-24T10:38:03.152Z,99086.75
2023-07-24T10:39:00.143Z,99081.88
2023-07-24T10:39:57.953Z,99078.50
2023-07-24T10:41:03.695Z,99078.50
2023-07-24T10:42:07.455Z,99070.31
2023-07-24T10:43:08.052Z,99074.16
2023-07-24T10:44:05.233Z,99071.94
2023-07-24T10:45:09.088Z,99066.97
2023-07-24T10:46:06.265Z,99057.09
2023-07-24T10:47:03.703Z,99060.47
2023-07-24T10:48:00.729Z,99059.28
2023-07-24T10:49:02.189Z,99059.66
2023-07-24T10:49:59.483Z,99063.87
2023-07-24T10:50:56.435Z,99061.41
2023-07-24T10:51:57.925Z,99047.44
2023-07-24T10:52:55.356Z,99049.97
2023-07-24T10:53:52.447Z,99059.72
2023-07-24T10:54:52.176Z,99062.28
2023-07-24T10:55:49.491Z,99061.69
2023-07-24T10:56:46.494Z,99053.03
2023-07-24T10:57:43.479Z,99055.72
2023-07-24T10:58:40.479Z,99042.56
2023-07-24T10:59:39.067Z,99050.13
2023-07-24T11:00:36.328Z,99040.53
2023-07-24T11:01:34.739Z,99035.75
2023-07-24T11:02:32.485Z,99028.50
2023-07-24T11:03:29.551Z,99021.34
2023-07-24T11:04:26.627Z,99024.78
2023-07-24T11:05:24.288Z,99017.91
2023-07-24T11:06:23.609Z,99017.22
2023-07-24T11:07:20.835Z,99015.19
2023-07-24T11:08:19.745Z,99013.06
2023-07-24T11:09:16.757Z,99013.25
2023-07-24T11:10:20.273Z,99012.00
2023-07-24T11:11:18.648Z,99010.75
2023-07-24T11:12:16.974Z,99006.56
2023-07-24T11:13:13.922Z,99018.19
2023-07-24T11:14:15.847Z,99015.56
2023-07-24T11:15:13.685Z,99005.88
2023-07-24T11:16:10.866Z,99008.28
2023-07-24T11:17:07.943Z,99002.56
2023-07-24T11:18:09.622Z,98994.53
2023-07-24T11:19:06.644Z,98987.97
2023-07-24T11:20:08.513Z,98986.28
2023-07-24T11:21:07.023Z,98993.53
2023-07-24T11:22:05.067Z,98995.03
2023-07-24T11:23:02.078Z,98990.28
2023-07-24T11:23:59.276Z,98992.50
2023-07-24T11:24:58.500Z,98988.56